createdAt,value
2023-03-28T00:03:39.963Z,1.38
2023-03-28T00:08:43.235Z,1.33
2023-03-28T00:13:46.659Z,1.32
2023-03-28T00:18:50.940Z,1.00
2023-03-28T00:23:54.897Z,1.05
2023-03-28T00:28:58.161Z,0.93
2023-03-28T00:34:03.953Z,0.66
2023-03-28T00:39:07.423Z,0.61
2023-03-28T00:44:42.542Z,0.89
2023-03-28T00:49:50.616Z,0.52
2023-03-28T00:54:57.454Z,0.96
2023-03-28T01:00:00.314Z,1.15
2023-03-28T01:05:06.068Z,1.03
2023-03-28T01:10:10.685Z,0.93
2023-03-28T01:15:13.732Z,1.12
2023-03-28T01:20:41.056Z,0.95
2023-03-28T01:26:12.175Z,0.75
2023-03-28T01:31:36.663Z,0.89
2023-03-28T01:37:35.299Z,0.69
2023-03-28T01:42:45.266Z,1.10
2023-03-28T01:47:54.804Z,1.05
2023-03-28T01:53:08.834Z,0.88
2023-03-28T01:58:16.871Z,0.63
2023-03-28T02:03:31.404Z,0.61
2023-03-28T02:08:42.611Z,0.50
2023-03-28T02:13:58.459Z,0.61
2023-03-28T02:19:25.109Z,0.44
2023-03-28T02:24:52.031Z,0.28
2023-03-28T02:30:14.058Z,0.35
2023-03-28T02:35:31.161Z,0.10
2023-03-28T02:40:48.278Z,0.41
2023-03-28T02:46:13.457Z,0.26
2023-03-28T02:51:30.090Z,0.74
2023-03-28T02:56:44.308Z,0.61
2023-03-28T03:01:58.252Z,0.86
2023-03-28T03:07:02.616Z,0.74
2023-03-28T03:12:09.598Z,0.65
2023-03-28T03:17:12.488Z,0.98
2023-03-28T03:22:20.910Z,0.52
2023-03-28T03:27:27.956Z,0.84
2023-03-28T03:32:31.713Z,0.61
2023-03-28T03:37:39.720Z,0.24
2023-03-28T03:42:43.918Z,0.33
2023-03-28T03:47:46.891Z,0.29
2023-03-28T03:52:49.754Z,0.54
2023-03-28T03:58:00.121Z,0.38
2023-03-28T04:03:04.036Z,0.58
2023-03-28T04:08:07.826Z,0.67
2023-03-28T04:13:15.146Z,0.42
2023-03-28T04:18:20.612Z,0.54
2023-03-28T04:23:25.920Z,0.37
2023-03-28T04:28:31.353Z,0.19
2023-03-28T04:33:40.125Z,0.12
2023-03-28T04:38:45.773Z,-0.02
2023-03-28T04:44:08.674Z,0.16
2023-03-28T04:49:19.232Z,0.17
2023-03-28T04:54:22.703Z,0.07
2023-03-28T04:59:45.282Z,0.14
2023-03-28T05:04:57.258Z,-0.06
2023-03-28T05:10:00.244Z,-0.15
2023-03-28T05:15:22.470Z,-0.14
2023-03-28T05:20:48.961Z,0.06
2023-03-28T05:25:53.061Z,-0.39
2023-03-28T05:30:58.802Z,-0.50
2023-03-28T05:36:04.660Z,-0.41
2023-03-28T05:41:09.922Z,-0.58
2023-03-28T05:46:14.147Z,-0.07
2023-03-28T05:51:18.028Z,-0.10
2023-03-28T05:56:21.044Z,-0.14
2023-03-28T06:01:28.867Z,-0.20
2023-03-28T06:06:41.256Z,-0.08
2023-03-28T06:11:45.166Z,0.18
2023-03-28T06:16:49.485Z,0.32
2023-03-28T06:21:54.030Z,0.35
2023-03-28T06:26:57.062Z,0.02
2023-03-28T06:32:02.435Z,0.56
2023-03-28T06:37:05.821Z,0.23
2023-03-28T06:42:27.208Z,0.43
2023-03-28T06:47:37.614Z,0.65
2023-03-28T06:52:41.552Z,0.94
2023-03-28T06:57:45.287Z,1.04
2023-03-28T07:02:57.549Z,1.32
2023-03-28T07:08:00.704Z,2.07
2023-03-28T07:13:03.920Z,1.62
2023-03-28T07:18:10.628Z,2.34
2023-03-28T07:23:13.746Z,3.20
2023-03-28T07:28:16.692Z,3.16
2023-03-28T07:33:28.266Z,3.30
2023-03-28T07:38:37.020Z,3.87
2023-03-28T07:43:41.259Z,4.04
2023-03-28T07:48:46.496Z,4.11
2023-03-28T07:53:49.690Z,4.12
2023-03-28T07:58:53.091Z,3.72
2023-03-28T08:03:57.549Z,3.73
2023-03-28T08:09:11.341Z,4.24
2023-03-28T08:14:19.674Z,4.76
2023-03-28T08:19:23.935Z,5.29
2023-03-28T08:24:45.125Z,4.91
2023-03-28T08:29:51.606Z,5.63
2023-03-28T08:34:57.886Z,4.86
2023-03-28T08:40:07.039Z,5.36
2023-03-28T08:45:29.869Z,4.89
2023-03-28T08:50:37.426Z,5.17
2023-03-28T08:55:43.113Z,6.34
2023-03-28T09:00:46.503Z,6.07
2023-03-28T09:05:54.712Z,6.08
2023-03-28T09:11:05.606Z,6.22
2023-03-28T09:16:24.552Z,6.34
2023-03-28T09:22:12.423Z,6.42
2023-03-28T09:27:26.837Z,5.69
2023-03-28T09:32:38.082Z,6.44
2023-03-28T09:37:45.658Z,7.68
2023-03-28T09:43:02.867Z,6.60
2023-03-28T09:48:20.716Z,5.89
2023-03-28T09:53:27.510Z,6.43
2023-03-28T09:58:30.389Z,6.84
2023-03-28T10:03:54.474Z,6.22
2023-03-28T10:09:17.004Z,6.81
2023-03-28T10:14:33.891Z,7.73
2023-03-28T10:19:41.037Z,7.41
2023-03-28T10:24:54.826Z,5.86
2023-03-28T10:29:59.728Z,5.81
2023-03-28T10:35:11.686Z,6.21
2023-03-28T10:40:30.535Z,6.37
2023-03-28T10:46:04.917Z,6.66
2023-03-28T10:51:25.655Z,6.14
2023-03-28T10:56:34.337Z,5.79
2023-03-28T11:01:51.548Z,5.75
2023-03-28T11:07:04.610Z,6.17
2023-03-28T11:12:54.425Z,5.90
2023-03-28T11:18:14.282Z,5.70
2023-03-28T11:23:31.962Z,6.62
2023-03-28T11:29:19.167Z,6.23
2023-03-28T11:34:29.519Z,7.23
2023-03-28T11:39:42.450Z,8.15
2023-03-28T11:44:59.608Z,6.97
2023-03-28T11:50:08.357Z,6.60
2023-03-28T11:55:40.308Z,6.81
2023-03-28T12:01:03.482Z,6.33
2023-03-28T12:06:13.902Z,7.10
2023-03-28T12:11:23.846Z,6.54
2023-03-28T12:16:47.406Z,7.13
2023-03-28T12:21:55.610Z,7.82
2023-03-28T12:27:17.132Z,8.14
2023-03-28T12:32:43.210Z,8.22
2023-03-28T12:38:00.563Z,8.90
2023-03-28T12:43:06.154Z,8.50
2023-03-28T12:48:16.292Z,8.60
2023-03-28T12:53:21.856Z,10.65
2023-03-28T12:58:28.638Z,10.85
2023-03-28T13:03:46.227Z,10.03
2023-03-28T13:09:15.938Z,9.40
2023-03-28T13:14:34.192Z,9.76
2023-03-28T13:19:48.430Z,8.09
2023-03-28T13:24:51.321Z,8.72
2023-03-28T13:30:03.555Z,8.76
2023-03-28T13:35:08.747Z,9.26
2023-03-28T13:40:42.172Z,8.31
2023-03-28T13:45:45.006Z,8.60
2023-03-28T13:50:50.732Z,8.76
2023-03-28T13:56:08.413Z,8.08
2023-03-28T14:01:17.467Z,10.32
2023-03-28T14:06:24.274Z,9.72
2023-03-28T14:11:31.637Z,10.25
2023-03-28T14:16:35.214Z,8.94
2023-03-28T14:21:39.439Z,8.87
2023-03-28T14:26:42.205Z,8.65
2023-03-28T14:31:46.977Z,8.12
2023-03-28T14:36:59.427Z,9.60
2023-03-28T14:42:05.292Z,9.49
2023-03-28T14:47:09.173Z,10.02
2023-03-28T14:52:16.236Z,9.84
2023-03-28T14:57:19.676Z,10.11
2023-03-28T15:02:27.589Z,10.25
2023-03-28T15:07:35.579Z,10.09
2023-03-28T15:12:46.280Z,9.61
2023-03-28T15:17:51.378Z,10.21
2023-03-28T15:22:57.779Z,8.85
2023-03-28T15:28:03.711Z,9.11
2023-03-28T15:33:07.733Z,9.46
2023-03-28T15:38:18.939Z,8.59
2023-03-28T15:43:38.569Z,8.41
2023-03-28T15:48:42.903Z,8.98
2023-03-28T15:53:50.132Z,8.64
2023-03-28T15:58:53.834Z,8.80
2023-03-28T16:04:21.201Z,8.97
2023-03-28T16:09:26.796Z,8.98
2023-03-28T16:14:29.946Z,8.65
2023-03-28T16:19:51.751Z,8.00
2023-03-28T16:24:56.442Z,7.89
2023-03-28T16:29:59.203Z,7.89
2023-03-28T16:35:01.928Z,7.98
2023-03-28T16:40:07.701Z,7.81
2023-03-28T16:45:13.021Z,7.67
2023-03-28T16:50:16.525Z,7.64
2023-03-28T16:55:21.008Z,7.73
2023-03-28T17:00:24.357Z,7.85
2023-03-28T17:05:27.187Z,8.06
2023-03-28T17:10:31.599Z,7.94
2023-03-28T17:15:35.558Z,7.86
2023-03-28T17:20:38.422Z,7.67
2023-03-28T17:25:53.874Z,7.58
2023-03-28T17:30:57.679Z,7.54
2023-03-28T17:36:00.858Z,7.41
2023-03-28T17:41:05.761Z,7.40
2023-03-28T17:46:09.000Z,7.40
2023-03-28T17:51:12.713Z,7.39
2023-03-28T17:56:17.350Z,7.35
2023-03-28T18:01:20.318Z,7.34
2023-03-28T18:06:23.122Z,7.32
2023-03-28T18:11:27.412Z,7.32
2023-03-28T18:16:30.852Z,7.27
2023-03-28T18:21:34.086Z,7.22
2023-03-28T18:26:38.232Z,7.15
2023-03-28T18:31:42.497Z,7.09
2023-03-28T18:36:45.507Z,7.01
2023-03-28T18:41:49.867Z,6.99
2023-03-28T18:46:55.384Z,6.99
2023-03-28T18:52:04.234Z,6.91
2023-03-28T18:57:09.081Z,6.85
2023-03-28T19:02:13.605Z,6.82
2023-03-28T19:07:17.604Z,6.74
2023-03-28T19:12:21.743Z,6.63
2023-03-28T19:17:24.593Z,6.60
2023-03-28T19:22:27.399Z,6.55
2023-03-28T19:27:31.546Z,6.52
2023-03-28T19:32:34.317Z,6.63
2023-03-28T19:37:37.436Z,6.64
2023-03-28T19:42:41.565Z,6.65
2023-03-28T19:47:44.381Z,6.61
2023-03-28T19:52:47.198Z,6.60
2023-03-28T19:57:51.302Z,6.64
2023-03-28T20:02:54.413Z,6.69
2023-03-28T20:07:57.162Z,6.74
2023-03-28T20:13:01.435Z,6.77
2023-03-28T20:18:04.959Z,6.72
2023-03-28T20:23:08.156Z,6.65
2023-03-28T20:28:12.596Z,6.63
2023-03-28T20:33:15.395Z,6.63
2023-03-28T20:38:18.223Z,6.54
2023-03-28T20:43:26.736Z,6.45
2023-03-28T20:48:36.455Z,6.42
2023-03-28T20:53:39.384Z,6.45
2023-03-28T20:58:44.050Z,6.37
2023-03-28T21:03:49.776Z,6.41
2023-03-28T21:08:54.954Z,6.44
2023-03-28T21:14:01.021Z,6.39
2023-03-28T21:19:04.844Z,6.33
2023-03-28T21:24:08.592Z,6.31
2023-03-28T21:29:12.699Z,6.17
2023-03-28T21:34:16.023Z,6.23
2023-03-28T21:39:19.179Z,6.29
2023-03-28T21:44:23.308Z,6.26
2023-03-28T21:49:26.267Z,6.26
2023-03-28T21:54:29.072Z,6.25
2023-03-28T21:59:33.227Z,6.27
2023-03-28T22:04:36.813Z,6.34
2023-03-28T22:09:39.851Z,6.24
2023-03-28T22:14:43.999Z,6.27
2023-03-28T22:19:47.168Z,5.99
2023-03-28T22:24:49.921Z,6.10
2023-03-28T22:29:54.091Z,6.02
2023-03-28T22:34:56.934Z,5.91
2023-03-28T22:39:59.718Z,6.10
2023-03-28T22:45:04.103Z,5.98
2023-03-28T22:50:09.139Z,6.15
2023-03-28T22:55:13.472Z,5.70
2023-03-28T23:00:18.403Z,5.73
2023-03-28T23:05:21.511Z,5.17
2023-03-28T23:10:24.454Z,5.29
2023-03-28T23:15:29.334Z,5.41
2023-03-28T23:20:32.124Z,5.15
2023-03-28T23:25:34.884Z,5.01
2023-03-28T23:30:40.628Z,5.04
2023-03-28T23:35:44.163Z,5.06
2023-03-28T23:40:47.296Z,5.09
2023-03-28T23:45:51.827Z,4.96
2023-03-28T23:50:54.715Z,5.04
2023-03-28T23:55:57.530Z,4.78
